Observations for Trim Market St
| Time | AQI | Temp °C | Hum % | Pres Pa | CO μg/m³ | H₂S μg/m³ | NO μg/m³ | NO₂ μg/m³ | O₃ μg/m³ | SO₂ μg/m³ | PM1 μg/m³ | PM2.5 μg/m³ | PM10 μg/m³ |
|---|---|---|---|---|---|---|---|---|---|---|---|---|---|
| Friday 10 July 2026 | |||||||||||||
| 13:39 | 1 | 41.3 | 26 | 67,141 | 0 | 0 | 0 | 0 | 28.44 | 5.97 | 3.56 | 6.76 | 7.44 |
| 13:35 | 1 | 41 | 27 | 67,132 | 0 | 0 | 0 | 0 | 35.73 | 5.24 | 2.85 | 6.19 | 6.81 |
| 13:34 | 1 | 41 | 27 | 67,137 | 0 | 0 | 0 | 0 | 30.83 | 7.14 | 2.85 | 6.19 | 6.81 |
| 13:30 | 1 | 40.8 | 27 | 67,100 | 0 | 0 | 0 | 0 | 36.9 | 6.28 | 2.14 | 5.63 | 5.76 |
| 13:25 | 1 | 40.6 | 27 | 67,078 | 0 | 0 | 0 | 0 | 25.28 | 6.74 | 2.85 | 6.17 | 6.79 |
| 13:20 | 1 | 40.6 | 27 | 67,045 | 0 | 0 | 0 | 0 | 26.02 | 5.05 | 2.14 | 5.62 | 6.18 |
| 13:19 | 1 | 40.6 | 27 | 67,061 | 0 | 0 | 0 | 0 | 18.9 | 5.27 | 2.85 | 6.16 | 6.78 |
| 13:18 | 1 | 40.6 | 27 | 67,055 | 0 | 0 | 0 | 0 | 17.55 | 4.05 | 2.85 | 6.15 | 6.77 |
| 13:17 | 1 | 40.6 | 28 | 67,043 | 0 | 0 | 0 | 0 | 25.83 | 5.14 | 2.14 | 4.51 | 4.96 |
| 13:16 | 1 | 40.5 | 28 | 67,027 | 0 | 0 | 0 | 0 | 29.36 | 4.29 | 1.43 | 4.5 | 4.95 |
| 13:15 | 1 | 40.4 | 28 | 67,013 | 0 | 0 | 0 | 0 | 37.58 | 4.39 | 2.14 | 5.03 | 5.77 |
| 13:14 | 1 | 40.3 | 28 | 67,019 | 0 | 0 | 0 | 0 | 16.49 | 4.4 | 1.43 | 5.02 | 5.53 |
| 13:13 | 1 | 40.2 | 28 | 66,998 | 0 | 0 | 0 | 0 | 29.68 | 4.43 | 2.14 | 5.57 | 6.13 |
| 13:12 | 1 | 40.1 | 28 | 66,973 | 0 | 0 | 0 | 7.66 | 8.73 | 2.28 | 2.14 | 4.48 | 4.93 |
| 13:11 | 1 | 39.9 | 28 | 66,973 | 0 | 0 | 0 | 16.3 | 0 | 1.06 | 2.85 | 6.11 | 6.72 |
| 13:10 | 1 | 39.8 | 28 | 66,941 | 0 | 0 | 0 | 14.91 | 0 | 1.9 | 0.71 | 3.92 | 4.32 |
| 13:09 | 1 | 39.7 | 28 | 66,939 | 0 | 0 | 0 | 1.03 | 22.64 | 3.06 | 2.14 | 5.01 | 5.51 |
| 13:08 | 1 | 39.6 | 29 | 66,906 | 0 | 0 | 0 | 0.44 | 20.62 | 2.65 | 1.43 | 5.01 | 5.51 |
| 13:07 | 1 | 39.5 | 28 | 66,892 | 0 | 0 | 0 | 0 | 26.69 | 3.23 | 1.43 | 4.46 | 4.91 |
| 13:05 | 1 | 39.2 | 28 | 66,874 | 0 | 0 | 0 | 0 | 33.31 | 2.9 | 1.43 | 5.01 | 5.52 |